Terminal Aerodrome Forecast
Issued by NWS Wilmington, OH

Current Version | Previous Version | Text Only | Print | Product List | Glossary On
Versions: 1 2 3 4 5 6 7 8 9 10 11 12 13 14 15 16 17 18 19 20 21 22 23
000 FTUS41 KILN 040542 TAFDAY TAF KDAY 040542Z 0406/0506 12004KT P6SM SCT025 OVC150 FM041200 12007KT P6SM OVC090 FM041700 13010KT P6SM OVC050 FM042100 13010KT 4SM -RA BR OVC025 FM042300 14008KT 4SM -RA BR OVC012 FM050100 16006KT 4SM -RA BR OVC005 FM050400 25008KT P6SM OVC005=

USA.gov is the U.S. government's official web portal to all federal, state and local government web resources and services.